createdAt,value
2023-04-19T00:02:19.696Z,23.83
2023-04-19T00:05:26.914Z,13.62
2023-04-19T00:08:33.297Z,30.65
2023-04-19T00:11:39.483Z,24.23
2023-04-19T00:14:45.582Z,23.83
2023-04-19T00:17:51.606Z,19.02
2023-04-19T00:20:57.185Z,22.42
2023-04-19T00:24:02.756Z,16.87
2023-04-19T00:27:07.368Z,25.12
2023-04-19T00:30:13.681Z,18.57
2023-04-19T00:33:21.097Z,31.23
2023-04-19T00:36:28.289Z,13.88
2023-04-19T00:39:32.828Z,18.05
2023-04-19T00:42:38.593Z,39.05
2023-04-19T00:45:43.288Z,20.08
2023-04-19T00:48:49.537Z,29.50
2023-04-19T00:51:56.121Z,18.85
2023-04-19T00:55:02.592Z,24.87
2023-04-19T00:58:02.762Z,21.70
2023-04-19T01:00:48.256Z,15.05
2023-04-19T01:03:42.864Z,28.20
2023-04-19T01:06:36.300Z,21.65
2023-04-19T01:09:42.617Z,18.37
2023-04-19T01:12:47.872Z,22.60
2023-04-19T01:15:53.854Z,19.27
2023-04-19T01:18:59.229Z,30.92
2023-04-19T01:22:05.323Z,28.70
2023-04-19T01:25:11.657Z,21.00
2023-04-19T01:28:16.763Z,30.27
2023-04-19T01:31:22.596Z,29.98
2023-04-19T01:34:21.763Z,17.10
2023-04-19T01:37:14.369Z,21.60
2023-04-19T01:40:13.690Z,25.85
2023-04-19T01:43:12.316Z,26.93
2023-04-19T01:46:17.989Z,19.23
2023-04-19T01:49:22.724Z,24.85
2023-04-19T01:52:28.324Z,19.62
2023-04-19T01:55:33.844Z,24.40
2023-04-19T01:58:39.552Z,13.93
2023-04-19T02:01:44.957Z,18.60
2023-04-19T02:04:51.323Z,24.67
2023-04-19T02:07:59.457Z,18.67
2023-04-19T02:11:05.691Z,21.07
2023-04-19T02:14:10.496Z,21.65
2023-04-19T02:17:15.889Z,25.08
2023-04-19T02:20:24.490Z,23.90
2023-04-19T02:23:29.884Z,16.65
2023-04-19T02:26:34.719Z,22.65
2023-04-19T02:29:39.606Z,21.48
2023-04-19T02:32:45.251Z,14.33
2023-04-19T02:35:51.195Z,17.82
2023-04-19T02:38:59.102Z,17.45
2023-04-19T02:42:04.599Z,19.52
2023-04-19T02:45:09.719Z,24.10
2023-04-19T02:48:15.224Z,22.60
2023-04-19T02:51:21.079Z,19.55
2023-04-19T02:54:26.633Z,25.75
2023-04-19T02:57:32.568Z,19.52
2023-04-19T03:00:33.296Z,18.67
2023-04-19T03:03:42.141Z,21.37
2023-04-19T03:06:49.246Z,21.68
2023-04-19T03:09:55.690Z,19.05
2023-04-19T03:13:01.827Z,19.85
2023-04-19T03:16:07.926Z,23.05
2023-04-19T03:19:14.053Z,18.77
2023-04-19T03:22:21.780Z,23.07
2023-04-19T03:25:27.345Z,34.88
2023-04-19T03:28:35.383Z,16.37
2023-04-19T03:31:53.006Z,29.12
2023-04-19T03:34:59.118Z,38.40
2023-04-19T03:38:06.645Z,17.87
2023-04-19T03:41:11.901Z,44.77
2023-04-19T03:44:18.878Z,26.02
2023-04-19T03:47:24.874Z,29.60
2023-04-19T03:50:31.104Z,32.58
2023-04-19T03:53:37.088Z,30.12
2023-04-19T03:56:43.399Z,30.05
2023-04-19T03:59:51.232Z,34.45
2023-04-19T04:02:57.326Z,27.75
2023-04-19T04:06:05.966Z,34.18
2023-04-19T04:09:11.231Z,21.90
2023-04-19T04:12:16.665Z,33.08
2023-04-19T04:15:24.842Z,37.95
2023-04-19T04:18:33.713Z,30.72
2023-04-19T04:21:40.777Z,45.83
2023-04-19T04:24:51.958Z,48.92
2023-04-19T04:28:01.614Z,54.25
2023-04-19T04:31:08.840Z,60.98
2023-04-19T04:34:16.949Z,53.60
2023-04-19T04:37:24.908Z,45.03
2023-04-19T04:40:31.465Z,69.17
2023-04-19T04:43:39.128Z,67.65
2023-04-19T04:46:37.803Z,57.80
2023-04-19T04:49:45.211Z,70.05
2023-04-19T04:52:50.009Z,79.92
2023-04-19T04:56:00.971Z,72.27
2023-04-19T04:59:06.759Z,57.93
2023-04-19T05:02:14.329Z,75.35
2023-04-19T05:05:20.539Z,41.92
2023-04-19T05:08:26.908Z,53.60
2023-04-19T05:11:34.674Z,88.52
2023-04-19T05:14:40.649Z,66.75
2023-04-19T05:17:45.953Z,79.25
2023-04-19T05:20:51.210Z,70.83
2023-04-19T05:24:00.202Z,64.07
2023-04-19T05:27:05.513Z,50.15
2023-04-19T05:30:12.239Z,72.15
2023-04-19T05:33:17.815Z,58.20
2023-04-19T05:36:23.615Z,75.57
2023-04-19T05:39:27.993Z,93.87
2023-04-19T05:42:33.031Z,56.23
2023-04-19T05:45:39.386Z,71.72
2023-04-19T05:48:43.866Z,74.15
2023-04-19T05:51:58.352Z,52.13
2023-04-19T05:55:08.711Z,80.75
2023-04-19T05:57:57.209Z,65.50
2023-04-19T06:00:49.754Z,45.08
2023-04-19T06:03:35.359Z,74.25
2023-04-19T06:06:30.495Z,46.08
2023-04-19T06:09:30.779Z,56.80
2023-04-19T06:12:38.265Z,57.90
2023-04-19T06:15:43.606Z,63.50
2023-04-19T06:18:49.504Z,47.73
2023-04-19T06:21:55.783Z,77.08
2023-04-19T06:25:02.399Z,73.47
2023-04-19T06:28:08.106Z,80.50
2023-04-19T06:31:13.659Z,64.42
2023-04-19T06:34:19.870Z,68.00
2023-04-19T06:37:26.557Z,63.02
2023-04-19T06:40:31.436Z,62.88
2023-04-19T06:43:37.366Z,54.20
2023-04-19T06:46:42.628Z,54.23
2023-04-19T06:49:48.301Z,55.38
2023-04-19T06:52:53.377Z,48.98
2023-04-19T06:56:01.632Z,48.75
2023-04-19T06:59:07.733Z,61.65
2023-04-19T07:02:12.813Z,67.72
2023-04-19T07:05:20.014Z,55.48
2023-04-19T07:08:27.890Z,46.50
2023-04-19T07:11:31.460Z,54.38
2023-04-19T07:14:36.607Z,54.48
2023-04-19T07:17:42.738Z,54.60
2023-04-19T07:20:43.162Z,47.23
2023-04-19T07:26:52.894Z,39.20
2023-04-19T07:29:57.135Z,43.25
2023-04-19T07:33:02.625Z,45.30
2023-04-19T07:36:08.011Z,51.55
2023-04-19T07:39:12.681Z,43.10
2023-04-19T07:42:17.535Z,50.50
2023-04-19T07:45:23.175Z,39.95
2023-04-19T07:48:28.856Z,52.62
2023-04-19T07:51:27.893Z,58.75
2023-04-19T07:54:23.060Z,39.35
2023-04-19T07:57:28.430Z,50.12
2023-04-19T08:00:29.490Z,38.48
2023-04-19T08:03:34.332Z,64.55
2023-04-19T08:06:40.320Z,39.00
2023-04-19T08:09:45.583Z,44.35
2023-04-19T08:19:05.485Z,50.88
2023-04-19T08:22:11.402Z,50.95
2023-04-19T08:25:16.821Z,26.95
2023-04-19T08:28:21.777Z,39.58
2023-04-19T08:31:28.265Z,39.48
2023-04-19T08:34:32.879Z,39.18
2023-04-19T08:37:38.449Z,38.88
2023-04-19T08:40:45.315Z,35.88
2023-04-19T08:43:51.145Z,42.83
2023-04-19T08:46:56.909Z,42.50
2023-04-19T08:53:23.725Z,39.15
2023-04-19T08:56:32.047Z,42.40
2023-04-19T08:59:24.290Z,40.20
2023-04-19T09:02:31.022Z,39.35
2023-04-19T09:05:36.450Z,32.53
2023-04-19T09:08:46.072Z,33.65
2023-04-19T09:11:51.717Z,37.75
2023-04-19T09:15:02.367Z,41.55
2023-04-19T09:18:18.036Z,36.03
2023-04-19T09:21:23.544Z,34.53
2023-04-19T09:24:22.449Z,39.98
2023-04-19T09:27:08.248Z,25.92
2023-04-19T09:30:04.281Z,37.40
2023-04-19T09:32:55.393Z,36.13
2023-04-19T09:35:56.269Z,33.10
2023-04-19T09:42:09.078Z,37.03
2023-04-19T09:45:29.242Z,38.70
2023-04-19T09:48:21.626Z,40.63
2023-04-19T09:51:26.881Z,37.38
2023-04-19T09:54:33.887Z,25.08
2023-04-19T09:57:38.898Z,36.13
2023-04-19T10:00:50.048Z,34.43
2023-04-19T10:03:50.955Z,35.52
2023-04-19T10:10:18.781Z,38.05
2023-04-19T10:16:04.836Z,35.92
2023-04-19T10:22:11.188Z,30.92
2023-04-19T10:25:24.427Z,34.75
2023-04-19T10:28:32.076Z,34.78
2023-04-19T10:31:38.817Z,28.50
2023-04-19T10:34:54.107Z,51.65
2023-04-19T10:38:20.239Z,34.15
2023-04-19T10:41:26.944Z,33.10
2023-04-19T10:44:32.478Z,32.38
2023-04-19T10:51:24.162Z,38.90
2023-04-19T10:54:52.441Z,47.40
2023-04-19T10:58:21.922Z,34.15
2023-04-19T11:01:50.427Z,45.00
2023-04-19T11:05:06.960Z,31.77
2023-04-19T11:08:12.663Z,40.30
2023-04-19T11:11:19.957Z,26.82
2023-04-19T11:14:25.976Z,33.33
2023-04-19T11:17:39.028Z,27.80
2023-04-19T11:20:43.978Z,39.85
2023-04-19T11:23:49.898Z,27.52
2023-04-19T11:26:57.876Z,52.67
2023-04-19T11:30:03.619Z,34.20
2023-04-19T11:33:09.753Z,28.50
2023-04-19T11:36:15.572Z,29.98
2023-04-19T11:39:21.555Z,32.93
2023-04-19T11:42:34.234Z,28.15
2023-04-19T11:45:43.097Z,33.25
2023-04-19T11:48:48.602Z,51.25
2023-04-19T11:51:57.197Z,30.27
2023-04-19T11:55:02.630Z,43.75
2023-04-19T11:58:08.068Z,30.50
2023-04-19T12:01:20.457Z,37.50
2023-04-19T12:04:30.085Z,43.75
2023-04-19T12:07:36.971Z,37.73
2023-04-19T12:10:42.889Z,37.30
2023-04-19T12:13:49.104Z,35.03
2023-04-19T12:16:54.841Z,33.63
2023-04-19T12:20:01.046Z,33.88
2023-04-19T12:23:06.007Z,39.63
2023-04-19T12:26:12.305Z,30.15
2023-04-19T12:29:18.090Z,37.55
2023-04-19T12:32:25.411Z,35.23
2023-04-19T12:35:31.756Z,34.78
2023-04-19T12:38:36.960Z,31.07
2023-04-19T12:41:42.077Z,37.10
2023-04-19T12:44:47.039Z,33.88
2023-04-19T12:47:54.050Z,30.30
2023-04-19T12:50:59.895Z,37.95
2023-04-19T12:54:05.558Z,38.80
2023-04-19T12:57:09.721Z,32.23
2023-04-19T13:00:16.284Z,37.25
2023-04-19T13:03:22.408Z,38.53
2023-04-19T13:06:28.284Z,57.17
2023-04-19T13:09:34.612Z,33.23
2023-04-19T13:12:40.172Z,40.38
2023-04-19T13:15:45.786Z,42.50
2023-04-19T13:18:52.891Z,46.02
2023-04-19T13:21:59.309Z,34.53
2023-04-19T13:25:05.057Z,46.40
2023-04-19T13:28:11.117Z,41.58
2023-04-19T13:31:16.237Z,38.17
2023-04-19T13:34:21.050Z,47.23
2023-04-19T13:37:26.155Z,37.05
2023-04-19T13:40:32.334Z,42.35
2023-04-19T13:43:37.307Z,40.28
2023-04-19T13:46:42.309Z,46.15
2023-04-19T13:49:47.022Z,41.65
2023-04-19T13:52:52.844Z,39.03
2023-04-19T13:55:58.673Z,42.90
2023-04-19T13:59:04.452Z,52.48
2023-04-19T14:02:09.696Z,37.25
2023-04-19T14:05:15.451Z,33.90
2023-04-19T14:08:20.460Z,27.42
2023-04-19T14:11:25.347Z,25.62
2023-04-19T14:14:32.006Z,33.75
2023-04-19T14:17:37.969Z,33.15
2023-04-19T14:20:43.660Z,29.70
2023-04-19T14:23:49.082Z,34.53
2023-04-19T14:27:07.210Z,37.00
2023-04-19T14:30:02.086Z,34.40
2023-04-19T14:33:08.625Z,30.97
2023-04-19T14:36:14.970Z,34.65
2023-04-19T14:39:23.155Z,28.98
2023-04-19T14:42:30.976Z,32.55
2023-04-19T14:45:36.641Z,29.20
2023-04-19T14:48:41.896Z,39.63
2023-04-19T14:51:49.855Z,41.35
2023-04-19T14:54:55.150Z,28.02
2023-04-19T14:58:01.717Z,51.63
2023-04-19T15:01:06.742Z,32.95
2023-04-19T15:04:13.597Z,52.60
2023-04-19T15:07:19.699Z,28.55
2023-04-19T15:10:25.845Z,28.57
2023-04-19T15:13:32.863Z,33.88
2023-04-19T15:16:40.350Z,31.82
2023-04-19T15:19:45.199Z,38.08
2023-04-19T15:22:50.733Z,39.65
2023-04-19T15:25:56.870Z,33.08
2023-04-19T15:29:03.596Z,33.48
2023-04-19T15:32:09.742Z,22.85
2023-04-19T15:35:16.332Z,26.37
2023-04-19T15:38:21.939Z,28.38
2023-04-19T15:41:27.927Z,32.40
2023-04-19T15:44:33.803Z,29.18
2023-04-19T15:47:39.290Z,31.75
2023-04-19T15:50:45.166Z,33.85
2023-04-19T15:53:50.897Z,42.08
2023-04-19T15:56:57.498Z,27.50
2023-04-19T16:00:03.722Z,24.32
2023-04-19T16:03:11.269Z,28.20
2023-04-19T16:06:18.154Z,24.45
2023-04-19T16:09:23.569Z,35.65
2023-04-19T16:12:29.309Z,21.70
2023-04-19T16:15:34.649Z,25.62
2023-04-19T16:18:40.205Z,32.05
2023-04-19T16:21:46.333Z,26.70
2023-04-19T16:24:53.711Z,29.55
2023-04-19T16:28:01.282Z,19.77
2023-04-19T16:31:08.141Z,26.75
2023-04-19T16:34:14.685Z,29.50
2023-04-19T16:37:20.388Z,32.53
2023-04-19T16:40:26.028Z,32.85
2023-04-19T16:43:32.240Z,29.42
2023-04-19T16:46:37.546Z,25.70
2023-04-19T16:49:44.529Z,23.12
2023-04-19T16:52:50.179Z,32.93
2023-04-19T16:55:56.646Z,34.63
2023-04-19T16:59:05.736Z,33.45
2023-04-19T17:02:14.767Z,35.95
2023-04-19T17:05:22.823Z,26.17
2023-04-19T17:08:28.729Z,35.10
2023-04-19T17:11:33.906Z,32.38
2023-04-19T17:14:26.222Z,32.45
2023-04-19T17:17:33.147Z,21.87
2023-04-19T17:20:39.443Z,30.43
2023-04-19T17:23:45.549Z,30.30
2023-04-19T17:26:51.844Z,31.20
2023-04-19T17:29:58.596Z,37.17
2023-04-19T17:33:06.114Z,32.42
2023-04-19T17:36:28.422Z,40.17
2023-04-19T17:39:35.129Z,30.65
2023-04-19T17:42:33.873Z,29.32
2023-04-19T17:45:28.467Z,27.15
2023-04-19T17:48:32.889Z,32.45
2023-04-19T17:51:41.760Z,28.02
2023-04-19T17:54:44.048Z,40.38
2023-04-19T17:57:52.639Z,37.78
2023-04-19T18:01:00.835Z,35.73
2023-04-19T18:04:06.717Z,39.55
2023-04-19T18:07:13.540Z,32.25
2023-04-19T18:10:24.680Z,39.55
2023-04-19T18:13:31.804Z,39.85
2023-04-19T18:16:37.379Z,36.88
2023-04-19T18:19:35.619Z,29.35
2023-04-19T18:22:40.708Z,23.67
2023-04-19T18:25:46.680Z,37.17
2023-04-19T18:28:54.032Z,36.48
2023-04-19T18:31:52.276Z,28.38
2023-04-19T18:34:45.820Z,23.55
2023-04-19T18:37:50.961Z,34.45
2023-04-19T18:40:57.731Z,28.47
2023-04-19T18:44:25.797Z,38.35
2023-04-19T18:47:10.878Z,47.33
2023-04-19T18:50:19.071Z,28.42
2023-04-19T18:53:23.250Z,28.55
2023-04-19T18:57:03.771Z,39.92
2023-04-19T18:59:35.811Z,36.65
2023-04-19T19:02:44.006Z,26.60
2023-04-19T19:05:50.072Z,33.10
2023-04-19T19:08:57.890Z,33.50
2023-04-19T19:12:03.612Z,28.60
2023-04-19T19:15:08.673Z,32.45
2023-04-19T19:18:14.975Z,31.82
2023-04-19T19:21:20.650Z,30.37
2023-04-19T19:24:26.523Z,37.25
2023-04-19T19:27:25.320Z,27.98
2023-04-19T19:30:32.138Z,24.92
2023-04-19T19:33:39.964Z,33.20
2023-04-19T19:36:44.192Z,29.05
2023-04-19T19:39:52.219Z,35.08
2023-04-19T19:42:57.803Z,32.05
2023-04-19T19:46:03.079Z,42.65
2023-04-19T19:49:12.614Z,27.55
2023-04-19T19:52:15.238Z,32.55
2023-04-19T19:55:20.807Z,32.30
2023-04-19T19:58:46.271Z,29.95
2023-04-19T20:01:32.430Z,26.40
2023-04-19T20:04:38.131Z,34.27
2023-04-19T20:10:49.565Z,23.35
2023-04-19T20:13:55.099Z,41.08
2023-04-19T20:17:00.303Z,26.40
2023-04-19T20:20:06.923Z,35.85
2023-04-19T20:23:05.237Z,39.25
2023-04-19T20:25:58.122Z,36.45
2023-04-19T20:29:02.555Z,44.58
2023-04-19T20:32:07.378Z,40.48
2023-04-19T20:35:16.735Z,24.63
2023-04-19T20:38:22.616Z,28.23
2023-04-19T20:41:29.195Z,36.68
2023-04-19T20:44:34.638Z,40.28
2023-04-19T20:47:40.264Z,23.02
2023-04-19T20:50:46.338Z,30.12
2023-04-19T20:53:53.084Z,27.93
2023-04-19T20:56:58.985Z,41.65
2023-04-19T21:00:04.850Z,43.00
2023-04-19T21:03:10.291Z,41.88
2023-04-19T21:06:15.466Z,43.63
2023-04-19T21:09:20.241Z,35.08
2023-04-19T21:12:24.906Z,40.08
2023-04-19T21:15:30.059Z,30.55
2023-04-19T21:18:36.776Z,35.40
2023-04-19T21:21:41.843Z,30.62
2023-04-19T21:24:47.151Z,32.13
2023-04-19T21:27:52.220Z,42.78
2023-04-19T21:30:58.622Z,30.20
2023-04-19T21:34:05.339Z,36.28
2023-04-19T21:37:11.061Z,24.27
2023-04-19T21:40:16.030Z,29.12
2023-04-19T21:43:20.804Z,41.02
2023-04-19T21:46:26.032Z,34.33
2023-04-19T21:49:31.673Z,35.33
2023-04-19T21:52:35.739Z,35.65
2023-04-19T21:55:41.745Z,31.33
2023-04-19T21:58:47.735Z,38.75
2023-04-19T22:01:54.271Z,27.95
2023-04-19T22:05:00.680Z,49.58
2023-04-19T22:07:59.857Z,33.08
2023-04-19T22:11:07.237Z,34.67
2023-04-19T22:14:11.740Z,32.03
2023-04-19T22:17:16.573Z,32.53
2023-04-19T22:20:24.290Z,26.82
2023-04-19T22:23:30.485Z,35.23
2023-04-19T22:26:35.625Z,36.48
2023-04-19T22:29:43.024Z,39.73
2023-04-19T22:32:48.832Z,39.60
2023-04-19T22:35:54.628Z,36.53
2023-04-19T22:38:53.945Z,26.60
2023-04-19T22:42:00.131Z,30.95
2023-04-19T22:45:05.592Z,38.13
2023-04-19T22:48:11.196Z,42.08
2023-04-19T22:51:16.175Z,26.62
2023-04-19T22:54:22.788Z,42.90
2023-04-19T22:57:21.994Z,37.88
2023-04-19T23:00:28.212Z,42.50
2023-04-19T23:03:34.665Z,56.92
2023-04-19T23:06:41.246Z,30.32
2023-04-19T23:09:39.702Z,32.63
2023-04-19T23:12:26.097Z,35.58
2023-04-19T23:15:20.098Z,35.17
2023-04-19T23:18:06.722Z,33.20
2023-04-19T23:20:58.724Z,34.35
2023-04-19T23:23:45.596Z,26.25
2023-04-19T23:26:38.545Z,42.53
2023-04-19T23:29:43.658Z,31.12
2023-04-19T23:32:49.670Z,49.10
2023-04-19T23:35:54.679Z,37.85
2023-04-19T23:38:53.444Z,47.25
2023-04-19T23:41:46.272Z,40.43
2023-04-19T23:44:52.709Z,41.63
2023-04-19T23:47:59.366Z,24.37
2023-04-19T23:50:58.566Z,49.23
2023-04-19T23:54:04.818Z,49.83
2023-04-19T23:57:10.353Z,40.90
